Time;durP1;ratioP1;P1;durP2;ratioP2;P2;SDS_P1;SDS_P2;PMS_P1;PMS_P2;Temp;Humidity;BMP_temperature;BMP_pressure;BME280_temperature;BME280_humidity;BME280_pressure;Samples;Min_cycle;Max_cycle;Signal;HPM_P1;HPM_P2
2024/04/19 00:01:15;;;;;;;11.52;3.90;;;6.80;99.90;;;;;;5475525;26;20096;-77
2024/04/19 00:03:41;;;;;;;11.05;4.07;;;7.20;99.90;;;;;;5459591;26;20017;-77
2024/04/19 00:06:09;;;;;;;14.68;4.30;;;6.80;99.90;;;;;;5473145;26;20032;-76
2024/04/19 00:08:35;;;;;;;14.43;4.28;;;6.80;99.90;;;;;;5473639;26;20100;-77
2024/04/19 00:11:02;;;;;;;9.45;3.67;;;6.80;99.90;;;;;;5450683;26;20007;-77
2024/04/19 00:13:30;;;;;;;6.88;3.65;;;6.80;99.90;;;;;;5445095;26;20016;-76
2024/04/19 00:15:59;;;;;;;8.95;3.92;;;6.80;99.90;;;;;;5465091;26;19994;-77
2024/04/19 00:18:26;;;;;;;11.73;4.13;;;6.80;99.90;;;;;;5466874;26;20012;-77
2024/04/19 00:20:56;;;;;;;6.78;3.80;;;6.80;99.90;;;;;;5476389;26;20021;-77
2024/04/19 00:23:22;;;;;;;14.00;3.95;;;6.70;99.90;;;;;;5465469;26;20006;-77
2024/04/19 00:25:48;;;;;;;9.23;4.00;;;6.90;99.90;;;;;;5474122;26;20006;-77
2024/04/19 00:28:14;;;;;;;8.57;4.07;;;6.80;99.90;;;;;;5478086;26;20025;-79
2024/04/19 00:30:40;;;;;;;8.52;4.35;;;6.80;99.90;;;;;;5460191;26;20002;-79
2024/04/19 00:33:06;;;;;;;8.32;3.97;;;6.70;99.90;;;;;;5471673;26;20037;-79
2024/04/19 00:35:32;;;;;;;13.15;4.63;;;6.80;99.90;;;;;;5471915;26;19999;-79
2024/04/19 00:37:58;;;;;;;9.30;4.22;;;7.00;99.90;;;;;;5474485;26;20021;-79
2024/04/19 00:40:23;;;;;;;11.20;4.43;;;6.70;99.90;;;;;;5462826;26;19995;-77
2024/04/19 00:42:50;;;;;;;8.68;4.40;;;6.70;99.90;;;;;;5465951;26;20077;-77
2024/04/19 00:45:35;;;;;;;14.13;4.88;;;6.70;99.90;;;;;;5479255;26;20002;-77
2024/04/19 00:48:16;;;;;;;10.80;4.38;;;6.70;99.90;;;;;;5473288;26;20373;-77
2024/04/19 00:50:43;;;;;;;8.48;4.57;;;6.70;99.90;;;;;;5483128;26;20394;-77
2024/04/19 00:53:10;;;;;;;10.23;4.45;;;6.70;99.90;;;;;;5482915;26;20010;-77
2024/04/19 00:55:37;;;;;;;9.35;4.97;;;6.70;99.90;;;;;;5473363;26;20024;-77
2024/04/19 00:58:03;;;;;;;8.55;4.70;;;6.70;99.90;;;;;;5482877;26;20010;-77
2024/04/19 01:00:29;;;;;;;8.40;4.78;;;6.70;99.90;;;;;;5481146;26;20010;-77
2024/04/19 01:02:56;;;;;;;10.43;4.47;;;6.70;99.90;;;;;;5461473;26;20017;-77
2024/04/19 01:05:22;;;;;;;12.73;4.88;;;6.70;99.90;;;;;;5463537;26;19994;-77
2024/04/19 01:07:49;;;;;;;12.93;5.47;;;6.70;99.90;;;;;;5480095;26;20011;-77
2024/04/19 01:10:16;;;;;;;10.55;5.10;;;6.70;99.90;;;;;;5467939;26;20019;-77
2024/04/19 01:12:41;;;;;;;11.13;5.45;;;6.70;99.90;;;;;;5461292;26;19994;-77
2024/04/19 01:15:22;;;;;;;12.20;5.25;;;6.70;99.90;;;;;;5463851;26;20006;-77
2024/04/19 01:17:48;;;;;;;9.25;5.22;;;6.70;99.90;;;;;;5476993;26;20017;-77
2024/04/19 01:20:14;;;;;;;9.32;5.35;;;6.70;99.90;;;;;;5472959;26;19999;-77
2024/04/19 01:22:42;;;;;;;11.65;5.30;;;6.70;99.90;;;;;;5472836;26;19999;-77
2024/04/19 01:25:20;;;;;;;14.43;6.03;;;6.80;99.90;;;;;;5467981;26;20008;-77
2024/04/19 01:27:46;;;;;;;10.13;5.80;;;7.10;99.90;;;;;;5462791;26;20017;-77
2024/04/19 01:30:12;;;;;;;12.18;6.43;;;6.80;99.90;;;;;;5459010;26;20006;-78
2024/04/19 01:32:37;;;;;;;12.32;5.85;;;6.80;99.90;;;;;;5470725;26;20138;-78
2024/04/19 01:35:03;;;;;;;14.88;6.22;;;6.80;99.90;;;;;;5468663;26;19998;-78
2024/04/19 01:37:29;;;;;;;15.95;5.57;;;6.80;99.90;;;;;;5469901;26;20018;-78
2024/04/19 01:39:54;;;;;;;16.23;6.55;;;6.80;99.90;;;;;;5475097;26;20460;-78
2024/04/19 01:42:20;;;;;;;11.52;6.47;;;6.80;99.90;;;;;;5464767;26;19998;-78
2024/04/19 01:44:46;;;;;;;10.80;6.10;;;6.80;99.90;;;;;;5471583;26;19998;-78
2024/04/19 01:47:11;;;;;;;10.32;5.70;;;6.90;99.90;;;;;;5462363;26;20347;-78
2024/04/19 01:49:38;;;;;;;9.00;5.68;;;6.90;99.90;;;;;;5483298;26;20002;-78
2024/04/19 01:52:05;;;;;;;10.93;5.80;;;6.90;99.90;;;;;;5478064;26;20006;-78
2024/04/19 01:54:30;;;;;;;11.43;6.20;;;6.90;99.90;;;;;;5472459;26;20006;-78
2024/04/19 01:56:58;;;;;;;9.85;5.82;;;6.90;99.90;;;;;;5485830;26;20013;-78
2024/04/19 01:59:27;;;;;;;12.75;6.88;;;6.90;99.90;;;;;;5469596;26;20163;-78
2024/04/19 02:01:53;;;;;;;9.68;5.85;;;6.90;99.90;;;;;;5454176;26;20355;-78
2024/04/19 02:04:19;;;;;;;12.95;5.53;;;7.00;99.90;;;;;;5480009;26;20006;-78
2024/04/19 02:06:44;;;;;;;9.00;5.53;;;7.10;99.90;;;;;;5472194;26;20013;-78
2024/04/19 02:09:11;;;;;;;10.65;5.70;;;7.00;99.90;;;;;;5482596;26;20364;-78
2024/04/19 02:11:36;;;;;;;9.45;5.13;;;7.10;99.90;;;;;;5472555;26;20002;-78
2024/04/19 02:14:02;;;;;;;9.73;5.00;;;7.00;99.90;;;;;;5479295;26;20006;-78
2024/04/19 02:16:30;;;;;;;9.98;4.30;;;7.00;99.90;;;;;;5471383;26;19995;-78
2024/04/19 02:18:57;;;;;;;8.68;4.15;;;7.10;99.90;;;;;;5463044;26;19998;-78
2024/04/19 02:21:27;;;;;;;9.15;3.63;;;7.10;99.90;;;;;;5465455;26;20025;-78
2024/04/19 02:23:54;;;;;;;9.20;4.32;;;7.10;99.90;;;;;;5472446;26;20013;-78
2024/04/19 02:26:20;;;;;;;6.28;3.33;;;7.10;99.90;;;;;;5459417;26;20084;-78
2024/04/19 02:31:31;;;;;;;6.25;3.25;;;7.10;99.90;;;;;;5473411;26;20021;-78
2024/04/19 02:33:57;;;;;;;6.95;3.17;;;7.10;99.90;;;;;;5474710;26;20006;-78
2024/04/19 02:36:23;;;;;;;6.45;3.30;;;7.10;99.90;;;;;;5474147;26;19998;-78
2024/04/19 02:38:49;;;;;;;6.45;2.85;;;7.10;99.90;;;;;;5471358;26;20103;-78
2024/04/19 02:41:14;;;;;;;7.22;2.85;;;8.00;99.90;;;;;;5485099;26;20014;-78
2024/04/19 02:43:48;;;;;;;5.35;2.83;;;7.10;99.90;;;;;;5487255;26;20459;-78
2024/04/19 02:46:15;;;;;;;9.45;3.20;;;7.20;99.90;;;;;;5469009;26;20475;-78
2024/04/19 02:48:41;;;;;;;6.70;3.08;;;7.20;99.90;;;;;;5475151;26;20011;-78
2024/04/19 02:51:07;;;;;;;7.45;3.20;;;7.30;99.90;;;;;;5475288;26;20075;-78
2024/04/19 02:53:33;;;;;;;5.70;3.28;;;7.20;99.90;;;;;;5456112;26;19999;-78
2024/04/19 02:55:59;;;;;;;8.20;3.33;;;7.20;99.90;;;;;;5473653;26;19998;-78
2024/04/19 02:58:25;;;;;;;6.00;3.35;;;7.20;99.90;;;;;;5480377;26;20025;-77
2024/04/19 03:00:50;;;;;;;6.50;3.42;;;7.20;99.90;;;;;;5472398;26;20006;-78
2024/04/19 03:03:16;;;;;;;6.40;3.28;;;7.30;99.90;;;;;;5471782;26;20006;-78
2024/04/19 03:05:43;;;;;;;7.55;3.92;;;7.30;99.90;;;;;;5479840;26;19998;-78
2024/04/19 03:08:09;;;;;;;6.65;3.58;;;7.30;99.90;;;;;;5481496;26;20462;-78
2024/04/19 03:10:55;;;;;;;10.38;3.67;;;7.30;99.90;;;;;;5454995;26;20014;-77
2024/04/19 03:13:21;;;;;;;5.80;3.70;;;7.30;99.90;;;;;;5480939;26;20062;-77
2024/04/19 03:16:08;;;;;;;6.45;3.63;;;7.30;99.90;;;;;;5476821;26;20454;-78
2024/04/19 03:18:34;;;;;;;6.10;3.72;;;7.30;99.90;;;;;;5477303;26;20010;-78
2024/04/19 03:21:20;;;;;;;8.35;3.85;;;7.40;99.90;;;;;;5481891;26;20008;-78
2024/04/19 03:23:45;;;;;;;6.82;3.13;;;7.40;99.90;;;;;;5464582;26;20006;-78
2024/04/19 03:26:11;;;;;;;6.30;3.10;;;7.50;99.90;;;;;;5482939;26;20374;-78
2024/04/19 03:28:37;;;;;;;4.70;2.88;;;7.50;99.90;;;;;;5452883;26;20017;-77
2024/04/19 03:31:07;;;;;;;7.40;3.40;;;7.50;99.90;;;;;;5463537;26;20075;-77
2024/04/19 03:33:32;;;;;;;5.10;3.10;;;7.60;99.90;;;;;;5467142;26;19995;-78
2024/04/19 03:36:01;;;;;;;4.25;2.80;;;7.50;99.90;;;;;;5471482;26;20012;-77
2024/04/19 03:38:30;;;;;;;5.85;2.67;;;7.50;99.90;;;;;;5467274;26;20046;-78
2024/04/19 03:40:56;;;;;;;5.18;3.38;;;7.50;99.90;;;;;;5464935;26;20401;-78
2024/04/19 03:45:40;;;;;;;6.50;2.90;;;7.50;99.90;;;;;;5472902;26;20002;-78
2024/04/19 03:46:28;;;;;;;4.40;2.80;;;7.50;99.90;;;;;;5473116;26;20010;-78
2024/04/19 03:48:54;;;;;;;4.50;2.75;;;7.50;99.90;;;;;;5460558;26;20351;-78
2024/04/19 03:51:19;;;;;;;4.10;2.83;;;7.60;99.90;;;;;;5463921;26;20016;-78
2024/04/19 03:53:45;;;;;;;4.45;3.00;;;7.60;99.90;;;;;;5483154;26;20342;-78
2024/04/19 03:56:31;;;;;;;3.83;2.58;;;7.60;99.90;;;;;;5465394;26;20002;-78
2024/04/19 03:59:02;;;;;;;4.57;2.70;;;7.60;99.90;;;;;;5480265;26;20026;-78
2024/04/19 04:01:28;;;;;;;3.72;2.75;;;7.60;99.90;;;;;;5479380;26;20014;-78
2024/04/19 04:03:54;;;;;;;6.30;2.90;;;7.60;99.90;;;;;;5470708;26;20012;-78
2024/04/19 04:06:25;;;;;;;2.78;2.20;;;7.60;99.90;;;;;;5463441;26;20458;-78
2024/04/19 04:08:51;;;;;;;5.03;2.33;;;7.70;99.90;;;;;;5471110;26;20006;-78
2024/04/19 04:11:17;;;;;;;4.10;2.50;;;7.70;99.90;;;;;;5468064;26;20379;-78
2024/04/19 04:13:43;;;;;;;2.88;2.15;;;7.70;99.90;;;;;;5473697;26;20013;-78
2024/04/19 04:16:09;;;;;;;3.30;2.25;;;7.80;99.90;;;;;;5477498;26;20013;-78
2024/04/19 04:18:35;;;;;;;4.75;2.35;;;7.80;99.90;;;;;;5472131;26;20006;-78
2024/04/19 04:21:02;;;;;;;6.90;2.90;;;7.90;99.90;;;;;;5468812;26;19998;-78
2024/04/19 04:23:27;;;;;;;6.65;3.45;;;7.90;99.90;;;;;;5471409;26;20006;-78
2024/04/19 04:25:53;;;;;;;6.80;3.22;;;8.00;99.90;;;;;;5483549;26;20462;-78
2024/04/19 04:28:19;;;;;;;8.23;3.40;;;8.00;99.90;;;;;;5453324;26;20050;-78
2024/04/19 04:30:45;;;;;;;10.30;3.53;;;8.00;99.90;;;;;;5472654;26;20006;-78
2024/04/19 04:33:11;;;;;;;10.80;3.65;;;8.10;99.90;;;;;;5485079;26;19998;-78
2024/04/19 04:35:39;;;;;;;9.13;3.72;;;8.20;99.90;;;;;;5478193;26;20013;-78
2024/04/19 04:38:06;;;;;;;13.23;4.05;;;8.20;99.90;;;;;;5514724;26;20010;-78
2024/04/19 04:40:32;;;;;;;9.75;4.13;;;8.20;99.90;;;;;;5477769;26;20473;-78
2024/04/19 04:42:58;;;;;;;6.18;3.35;;;8.30;99.90;;;;;;5476610;26;20006;-78
2024/04/19 04:45:24;;;;;;;7.55;3.35;;;8.30;99.90;;;;;;5477116;26;20421;-78
2024/04/19 04:47:50;;;;;;;11.18;3.45;;;8.30;99.90;;;;;;5483643;26;20021;-78
2024/04/19 04:50:19;;;;;;;15.00;3.28;;;8.30;99.90;;;;;;5476609;26;20009;-78
2024/04/19 04:52:44;;;;;;;9.88;3.33;;;8.40;99.90;;;;;;5454147;26;20022;-78
2024/04/19 04:55:10;;;;;;;15.55;3.53;;;8.40;99.90;;;;;;5481710;26;20006;-78
2024/04/19 04:57:36;;;;;;;12.65;3.85;;;8.40;99.90;;;;;;5465884;26;20009;-78
2024/04/19 05:00:02;;;;;;;12.40;3.55;;;8.40;99.90;;;;;;5482763;26;19994;-78
2024/04/19 05:02:28;;;;;;;10.75;3.65;;;8.40;99.90;;;;;;5477064;26;20007;-78
2024/04/19 05:04:54;;;;;;;12.85;3.53;;;8.40;99.90;;;;;;5467362;26;20527;-78
2024/04/19 05:07:22;;;;;;;11.40;3.67;;;8.40;99.90;;;;;;5457672;26;20018;-78
2024/04/19 05:09:51;;;;;;;12.02;3.60;;;8.50;99.90;;;;;;5470335;26;20007;-78
2024/04/19 05:12:18;;;;;;;12.50;4.25;;;8.70;99.90;;;;;;5481048;26;20002;-78
2024/04/19 05:14:43;;;;;;;21.27;4.15;;;8.50;99.90;;;;;;5472960;26;20002;-78
2024/04/19 05:17:09;;;;;;;16.00;3.75;;;8.50;99.90;;;;;;5474344;26;20030;-79
2024/04/19 05:19:35;;;;;;;13.38;3.70;;;8.50;99.90;;;;;;5477140;26;20440;-79
2024/04/19 05:22:01;;;;;;;11.13;3.83;;;8.50;99.90;;;;;;5470860;26;20006;-79
2024/04/19 05:24:27;;;;;;;11.52;3.97;;;8.60;99.90;;;;;;5478033;26;20467;-79
2024/04/19 05:26:56;;;;;;;16.10;4.07;;;8.60;99.90;;;;;;5475385;26;20039;-79
2024/04/19 05:29:24;;;;;;;19.00;4.43;;;8.50;99.90;;;;;;5464991;26;20011;-79
2024/04/19 05:31:53;;;;;;;21.83;4.65;;;8.70;99.90;;;;;;5474875;26;20011;-80
2024/04/19 05:34:19;;;;;;;18.90;4.40;;;8.60;99.90;;;;;;5472567;26;20006;-80
2024/04/19 05:36:45;;;;;;;20.35;4.38;;;9.00;99.90;;;;;;5475531;26;20370;-81
2024/04/19 05:39:11;;;;;;;23.73;4.47;;;8.70;99.90;;;;;;5474587;26;20002;-80
2024/04/19 05:41:38;;;;;;;18.50;3.80;;;8.60;99.90;;;;;;5487818;26;20006;-79
2024/04/19 05:44:04;;;;;;;19.55;3.90;;;8.70;99.90;;;;;;5489962;26;19994;-80
2024/04/19 05:46:31;;;;;;;18.95;3.65;;;8.70;99.90;;;;;;5484852;26;20009;-79
2024/04/19 05:48:58;;;;;;;22.45;4.35;;;8.70;99.90;;;;;;5481546;26;20011;-80
2024/04/19 05:51:23;;;;;;;17.13;4.18;;;8.70;99.90;;;;;;5478678;26;20014;-79
2024/04/19 05:53:50;;;;;;;14.45;3.70;;;8.80;99.90;;;;;;5488358;26;20004;-79
2024/04/19 05:56:15;;;;;;;17.60;5.15;;;8.70;99.90;;;;;;5479285;26;20047;-79
2024/04/19 05:58:44;;;;;;;18.23;3.95;;;8.80;99.90;;;;;;5472739;26;20006;-78
2024/04/19 06:01:10;;;;;;;19.27;4.03;;;9.10;99.90;;;;;;5491938;26;20013;-81
2024/04/19 06:03:36;;;;;;;19.55;4.68;;;9.20;99.90;;;;;;5485065;26;20017;-80
2024/04/19 06:06:01;;;;;;;18.80;3.90;;;8.80;99.90;;;;;;5477446;26;20003;-80
2024/04/19 06:08:27;;;;;;;26.15;4.25;;;8.90;99.90;;;;;;5455779;26;19998;-79
2024/04/19 06:10:53;;;;;;;18.52;3.63;;;8.90;99.90;;;;;;5480594;26;20006;-79
2024/04/19 06:13:19;;;;;;;15.68;4.18;;;8.90;99.90;;;;;;5482450;26;20162;-81
2024/04/19 06:15:45;;;;;;;18.05;3.80;;;9.00;99.90;;;;;;5494262;26;20478;-80
2024/04/19 06:18:11;;;;;;;20.55;3.65;;;9.00;99.90;;;;;;5494185;26;20025;-80
2024/04/19 06:20:38;;;;;;;19.58;3.53;;;9.00;99.90;;;;;;5469308;26;20017;-81
2024/04/19 06:23:04;;;;;;;23.73;4.07;;;9.00;99.90;;;;;;5484140;26;20078;-81
2024/04/19 06:25:30;;;;;;;22.55;3.80;;;9.00;99.90;;;;;;5487562;26;20021;-82
2024/04/19 06:27:55;;;;;;;18.15;3.47;;;9.00;99.90;;;;;;5499285;26;19994;-80
2024/04/19 06:30:23;;;;;;;18.77;3.80;;;9.30;99.90;;;;;;5488303;26;20013;-80
2024/04/19 06:32:49;;;;;;;22.77;4.15;;;9.30;99.90;;;;;;5527453;26;20078;-79
2024/04/19 06:35:18;;;;;;;14.07;3.28;;;9.00;99.90;;;;;;5490602;26;20795;-80
2024/04/19 06:37:44;;;;;;;18.50;3.88;;;9.00;99.90;;;;;;5484319;26;20002;-80
2024/04/19 06:40:10;;;;;;;19.13;2.95;;;9.00;99.90;;;;;;5486964;26;20020;-80
2024/04/19 06:42:36;;;;;;;24.33;3.78;;;9.00;99.90;;;;;;5485396;26;20003;-80
2024/04/19 06:45:02;;;;;;;23.73;3.67;;;9.00;99.90;;;;;;5476380;26;20003;-80
2024/04/19 06:47:28;;;;;;;22.02;3.70;;;9.00;99.90;;;;;;5489242;26;20003;-80
2024/04/19 06:49:53;;;;;;;19.98;2.95;;;9.00;99.90;;;;;;5493894;26;20518;-83
2024/04/19 06:52:19;;;;;;;17.83;3.15;;;9.00;99.90;;;;;;5496206;26;20055;-80
2024/04/19 06:54:45;;;;;;;25.38;3.47;;;9.40;99.90;;;;;;5466994;26;20038;-81
2024/04/19 06:57:10;;;;;;;17.23;2.70;;;9.10;99.90;;;;;;5489681;26;19995;-81
2024/04/19 06:59:36;;;;;;;16.00;2.95;;;9.10;99.90;;;;;;5487271;26;20006;-81
2024/04/19 07:02:03;;;;;;;24.45;3.83;;;9.20;99.90;;;;;;5476728;26;20016;-81
2024/04/19 07:04:28;;;;;;;18.60;2.88;;;9.20;99.90;;;;;;5486199;26;20064;-80
2024/04/19 07:06:54;;;;;;;22.65;4.40;;;9.20;99.90;;;;;;5475554;26;20015;-80
2024/04/19 07:09:21;;;;;;;19.48;2.60;;;9.20;99.90;;;;;;5471799;26;20006;-80
2024/04/19 07:11:46;;;;;;;14.60;2.75;;;9.30;99.90;;;;;;5466508;26;20451;-79
2024/04/19 07:14:14;;;;;;;22.67;2.60;;;9.20;99.90;;;;;;5463933;26;20006;-80
2024/04/19 07:16:39;;;;;;;21.33;3.63;;;9.60;99.90;;;;;;5481179;26;20073;-79
2024/04/19 07:19:05;;;;;;;20.23;2.78;;;9.30;99.90;;;;;;5468185;26;20007;-79
2024/04/19 07:21:31;;;;;;;12.95;2.38;;;9.40;99.90;;;;;;5465024;26;20014;-79
2024/04/19 07:23:57;;;;;;;12.55;2.45;;;9.50;99.90;;;;;;5518476;26;20051;-82
2024/04/19 07:26:22;;;;;;;15.95;3.28;;;9.40;99.90;;;;;;5482224;26;20002;-80
2024/04/19 07:28:48;;;;;;;22.30;2.60;;;9.40;99.90;;;;;;5480413;26;20030;-79
2024/04/19 07:31:14;;;;;;;14.48;2.40;;;9.40;99.90;;;;;;5486338;26;19994;-83
2024/04/19 07:33:40;;;;;;;14.73;2.47;;;9.50;99.90;;;;;;5481953;26;20003;-80
2024/04/19 07:36:06;;;;;;;11.93;2.13;;;9.50;99.90;;;;;;5492622;26;20018;-80
2024/04/19 07:38:31;;;;;;;19.75;2.22;;;9.50;99.90;;;;;;5473571;26;20346;-78
2024/04/19 07:41:03;;;;;;;11.85;1.80;;;9.40;99.90;;;;;;5486535;26;20030;-82
2024/04/19 07:43:29;;;;;;;15.55;2.63;;;9.40;99.90;;;;;;5481379;26;19994;-79
2024/04/19 07:45:55;;;;;;;12.65;2.72;;;9.40;99.90;;;;;;5476366;26;20009;-79
2024/04/19 07:48:20;;;;;;;12.93;1.88;;;9.40;99.90;;;;;;5484587;26;19999;-79
2024/04/19 07:50:46;;;;;;;13.38;1.92;;;9.40;99.90;;;;;;5478161;26;20006;-79
2024/04/19 07:53:12;;;;;;;12.40;1.42;;;9.40;99.90;;;;;;5458805;26;20007;-80
2024/04/19 07:55:41;;;;;;;12.00;2.00;;;9.50;99.90;;;;;;5452248;26;20011;-79
2024/04/19 07:58:07;;;;;;;7.65;1.38;;;9.50;99.90;;;;;;5467718;26;20020;-79
2024/04/19 08:00:33;;;;;;;9.00;1.40;;;9.50;99.90;;;;;;5483719;26;20007;-79
2024/04/19 08:02:59;;;;;;;10.13;1.90;;;9.50;99.90;;;;;;5463195;26;20033;-79
2024/04/19 08:05:25;;;;;;;7.90;1.67;;;9.50;99.90;;;;;;5451692;26;20007;-75
2024/04/19 08:07:51;;;;;;;10.75;1.90;;;9.50;99.90;;;;;;5461775;26;20013;-75
2024/04/19 08:10:17;;;;;;;10.45;1.83;;;9.50;99.90;;;;;;5448616;26;20017;-76
2024/04/19 08:12:46;;;;;;;7.40;1.73;;;9.50;99.90;;;;;;5459320;26;19997;-75
2024/04/19 08:15:13;;;;;;;7.22;1.77;;;9.40;99.90;;;;;;5478494;26;20014;-76
2024/04/19 08:17:40;;;;;;;14.55;1.88;;;9.40;99.90;;;;;;5482071;26;20074;-80
2024/04/19 08:20:10;;;;;;;10.10;1.80;;;9.40;99.90;;;;;;5484510;26;20017;-80
2024/04/19 08:22:36;;;;;;;11.20;2.05;;;9.40;99.90;;;;;;5464319;26;20074;-80
2024/04/19 08:25:02;;;;;;;14.82;2.13;;;9.40;99.90;;;;;;5465792;26;20020;-80
2024/04/19 08:27:28;;;;;;;13.95;2.15;;;9.50;99.90;;;;;;5467010;26;20010;-80
2024/04/19 08:29:54;;;;;;;11.60;2.58;;;9.60;99.90;;;;;;5483692;26;20106;-80
2024/04/19 08:32:20;;;;;;;10.65;2.38;;;9.70;99.90;;;;;;5474037;26;19994;-79
2024/04/19 08:34:56;;;;;;;9.05;1.73;;;9.70;99.90;;;;;;5481513;26;19998;-81
2024/04/19 08:37:24;;;;;;;11.68;1.98;;;9.80;99.90;;;;;;5478664;26;20375;-79
2024/04/19 08:39:54;;;;;;;7.40;1.80;;;9.80;99.90;;;;;;5462589;26;20018;-79
2024/04/19 08:42:20;;;;;;;12.13;1.80;;;9.90;99.90;;;;;;5460942;26;20416;-79
2024/04/19 08:44:50;;;;;;;8.15;1.52;;;9.90;99.90;;;;;;5463530;26;20015;-78
2024/04/19 08:47:17;;;;;;;8.27;1.65;;;10.00;99.90;;;;;;5458849;26;20019;-79
2024/04/19 08:49:43;;;;;;;10.13;1.90;;;10.10;99.90;;;;;;5473201;26;20014;-79
2024/04/19 08:52:10;;;;;;;13.82;2.03;;;10.30;99.90;;;;;;5470951;26;20068;-79
2024/04/19 08:54:39;;;;;;;9.30;1.75;;;10.20;99.90;;;;;;5462557;26;20047;-79
2024/04/19 08:57:05;;;;;;;9.35;2.03;;;10.50;99.90;;;;;;5453739;26;20492;-79
2024/04/19 08:59:32;;;;;;;12.18;2.13;;;9.90;99.90;;;;;;5466168;26;20006;-79
2024/04/19 09:01:58;;;;;;;11.10;1.80;;;10.60;99.90;;;;;;5460175;26;20003;-79
2024/04/19 09:04:23;;;;;;;11.25;1.95;;;10.70;99.90;;;;;;5449388;26;20007;-79
2024/04/19 09:06:49;;;;;;;9.20;1.70;;;10.60;99.90;;;;;;5460794;26;20056;-79
2024/04/19 09:09:15;;;;;;;12.90;1.95;;;10.60;99.90;;;;;;5447373;26;20007;-79
2024/04/19 09:11:44;;;;;;;8.68;1.75;;;10.60;99.90;;;;;;5459390;26;20007;-79
2024/04/19 09:14:10;;;;;;;10.82;1.60;;;10.70;99.90;;;;;;5451303;26;20015;-79
2024/04/19 09:16:37;;;;;;;7.97;1.58;;;10.60;99.90;;;;;;5483422;26;20012;-79
2024/04/19 09:19:03;;;;;;;8.63;1.63;;;10.60;99.90;;;;;;5468369;26;20015;-79
2024/04/19 09:21:29;;;;;;;10.05;1.60;;;10.80;99.90;;;;;;5453471;26;20017;-79
2024/04/19 09:23:55;;;;;;;10.50;2.08;;;10.60;99.90;;;;;;5479564;26;20075;-79
2024/04/19 09:26:24;;;;;;;7.43;1.73;;;10.50;99.90;;;;;;5453985;26;20456;-79
2024/04/19 09:28:54;;;;;;;9.27;1.95;;;10.50;99.90;;;;;;5482399;26;20006;-80
2024/04/19 09:31:20;;;;;;;5.25;1.10;;;10.50;99.90;;;;;;5475679;26;20017;-79
2024/04/19 09:33:47;;;;;;;10.35;1.65;;;10.50;99.90;;;;;;5472770;26;20019;-79
2024/04/19 09:36:20;;;;;;;5.35;1.08;;;10.50;99.90;;;;;;5473631;26;20006;-79
2024/04/19 09:38:46;;;;;;;5.97;1.10;;;10.40;99.90;;;;;;5469299;26;20471;-79
2024/04/19 09:41:16;;;;;;;3.20;0.68;;;10.30;99.90;;;;;;5469729;26;20014;-78
2024/04/19 09:43:49;;;;;;;6.35;0.80;;;10.20;99.90;;;;;;5472747;26;20086;-78
2024/04/19 09:46:34;;;;;;;3.40;0.60;;;10.10;99.90;;;;;;5465177;26;20019;-78
2024/04/19 09:49:03;;;;;;;4.57;1.00;;;10.20;99.90;;;;;;5471291;26;20019;-78
2024/04/19 09:51:43;;;;;;;5.93;0.50;;;10.00;99.90;;;;;;5459735;26;20007;-78
2024/04/19 09:54:12;;;;;;;6.70;0.60;;;10.00;99.90;;;;;;5461290;26;20018;-78
2024/04/19 09:56:59;;;;;;;3.55;0.82;;;9.90;99.90;;;;;;5458487;26;20018;-78
2024/04/19 09:59:25;;;;;;;3.20;0.60;;;9.90;99.90;;;;;;5465321;26;20459;-79
2024/04/19 10:01:53;;;;;;;6.40;0.80;;;9.90;99.90;;;;;;5487580;26;20006;-81
2024/04/19 10:04:20;;;;;;;4.50;0.65;;;10.00;99.90;;;;;;5467330;26;19995;-77
2024/04/19 10:06:48;;;;;;;4.28;0.65;;;9.80;99.90;;;;;;5452990;26;20337;-79
2024/04/19 10:09:18;;;;;;;2.90;0.65;;;9.70;99.90;;;;;;5454921;26;20003;-78
2024/04/19 10:11:56;;;;;;;3.53;0.43;;;9.70;99.90;;;;;;5461407;26;20064;-78
2024/04/19 10:14:23;;;;;;;2.40;0.40;;;9.60;99.90;;;;;;5455806;26;20046;-78
2024/04/19 10:16:50;;;;;;;2.15;0.75;;;9.60;99.90;;;;;;5462344;26;20018;-78
2024/04/19 10:19:16;;;;;;;3.33;0.70;;;9.60;99.90;;;;;;5460267;26;20007;-78
2024/04/19 10:21:42;;;;;;;2.22;0.70;;;9.90;99.90;;;;;;5467950;26;20006;-79
2024/04/19 10:24:19;;;;;;;2.33;0.82;;;10.00;99.90;;;;;;5459708;26;20025;-82
2024/04/19 10:26:48;;;;;;;1.88;0.47;;;10.40;99.90;;;;;;5458539;26;20020;-78
2024/04/19 10:29:17;;;;;;;1.40;0.63;;;10.70;99.90;;;;;;5482883;26;20042;-78
2024/04/19 10:31:50;;;;;;;2.30;1.15;;;11.10;99.90;;;;;;5472386;26;20003;-78
2024/04/19 10:34:19;;;;;;;4.15;0.82;;;11.40;99.90;;;;;;5479808;26;20017;-80
2024/04/19 10:36:46;;;;;;;6.72;1.15;;;11.60;99.90;;;;;;5466804;26;20018;-78
2024/04/19 10:39:12;;;;;;;5.10;1.13;;;11.80;99.90;;;;;;5458423;26;20414;-78
2024/04/19 10:41:52;;;;;;;4.72;1.40;;;12.10;99.90;;;;;;5464544;26;20021;-78
2024/04/19 10:44:18;;;;;;;4.70;1.05;;;12.30;99.90;;;;;;5456329;26;20337;-78
2024/04/19 10:46:45;;;;;;;2.35;0.68;;;12.50;99.90;;;;;;5462041;26;20466;-78
2024/04/19 10:49:11;;;;;;;0.52;0.40;;;12.60;99.90;;;;;;5482220;26;20014;-77
2024/04/19 10:51:38;;;;;;;3.65;0.80;;;12.50;99.90;;;;;;5467681;26;20049;-77
2024/04/19 10:54:05;;;;;;;2.70;0.50;;;12.30;99.90;;;;;;5471979;26;20021;-77
2024/04/19 10:56:31;;;;;;;4.45;1.17;;;12.00;99.90;;;;;;5459426;26;20059;-78
2024/04/19 10:58:57;;;;;;;8.77;1.77;;;11.60;99.90;;;;;;5461660;26;20007;-78
2024/04/19 11:01:23;;;;;;;5.60;2.38;;;11.30;99.90;;;;;;5467911;26;20021;-78
2024/04/19 11:03:49;;;;;;;5.63;1.60;;;10.90;99.90;;;;;;5458958;26;20003;-78
2024/04/19 11:06:16;;;;;;;5.53;1.63;;;10.70;99.90;;;;;;5466854;26;20100;-79
2024/04/19 11:08:42;;;;;;;3.83;1.10;;;10.70;99.90;;;;;;5467146;26;20078;-80
2024/04/19 11:11:09;;;;;;;1.65;0.77;;;10.40;99.90;;;;;;5468927;26;20468;-80
2024/04/19 11:13:36;;;;;;;2.25;0.63;;;10.60;99.90;;;;;;5456581;26;20014;-80
2024/04/19 11:16:02;;;;;;;4.10;1.00;;;10.50;99.90;;;;;;5461758;26;20007;-80
2024/04/19 11:18:29;;;;;;;6.65;0.98;;;10.30;99.90;;;;;;5470448;26;20002;-79
2024/04/19 11:20:55;;;;;;;4.68;1.13;;;10.40;99.90;;;;;;5460709;26;20021;-80
2024/04/19 11:23:21;;;;;;;2.35;1.02;;;10.50;99.90;;;;;;5468507;26;20018;-79
2024/04/19 11:25:47;;;;;;;4.60;1.05;;;10.60;99.90;;;;;;5479468;26;20017;-79
2024/04/19 11:28:14;;;;;;;5.43;0.82;;;10.70;99.90;;;;;;5469443;26;20033;-79
2024/04/19 11:30:40;;;;;;;3.78;0.90;;;10.80;99.90;;;;;;5470859;26;20077;-79
2024/04/19 11:33:11;;;;;;;4.45;1.13;;;10.90;99.90;;;;;;5459134;26;20011;-79
2024/04/19 11:35:38;;;;;;;8.23;1.30;;;11.10;99.90;;;;;;5455468;26;20006;-80
2024/04/19 11:38:04;;;;;;;4.45;1.15;;;11.20;99.90;;;;;;5460528;26;20018;-80
2024/04/19 11:40:30;;;;;;;5.22;1.17;;;11.30;99.90;;;;;;5458605;26;20052;-80
2024/04/19 11:42:56;;;;;;;4.22;1.25;;;11.40;99.90;;;;;;5472949;26;20034;-80
2024/04/19 11:45:22;;;;;;;6.60;1.50;;;11.60;99.90;;;;;;5457971;26;20057;-80
2024/04/19 11:47:50;;;;;;;8.18;1.77;;;11.90;99.90;;;;;;5468111;26;20344;-80
2024/04/19 11:50:18;;;;;;;6.28;1.83;;;11.70;99.90;;;;;;5458450;26;20038;-79
2024/04/19 11:52:44;;;;;;;10.52;1.73;;;11.60;99.90;;;;;;5463482;26;20018;-81
2024/04/19 11:55:09;;;;;;;7.35;1.65;;;11.50;99.90;;;;;;5457116;26;20360;-80
2024/04/19 11:57:35;;;;;;;5.80;1.60;;;11.30;99.90;;;;;;5460679;26;20019;-80
2024/04/19 12:00:01;;;;;;;8.60;1.50;;;11.20;99.90;;;;;;5454501;26;20017;-79
2024/04/19 12:02:26;;;;;;;6.40;1.85;;;10.70;99.90;;;;;;5479420;26;20028;-80
2024/04/19 12:04:52;;;;;;;8.40;1.77;;;10.60;99.90;;;;;;5462980;26;20007;-80
2024/04/19 12:07:18;;;;;;;11.68;1.83;;;10.70;99.90;;;;;;5466728;26;20014;-80
2024/04/19 12:09:43;;;;;;;11.55;1.80;;;10.70;99.90;;;;;;5463523;26;20022;-81
2024/04/19 12:12:14;;;;;;;9.88;2.13;;;10.70;99.90;;;;;;5473247;26;20025;-81
2024/04/19 12:14:39;;;;;;;8.25;2.30;;;10.70;99.90;;;;;;5462152;26;20014;-80
2024/04/19 12:17:08;;;;;;;6.60;1.92;;;10.70;99.90;;;;;;5488035;26;20020;-80
2024/04/19 12:19:36;;;;;;;10.18;2.05;;;10.80;99.90;;;;;;5464056;26;20003;-80
2024/04/19 12:22:02;;;;;;;7.95;2.03;;;10.70;99.90;;;;;;5467046;26;20022;-80
2024/04/19 12:24:34;;;;;;;7.20;2.30;;;10.70;99.90;;;;;;5456492;26;20003;-80
2024/04/19 12:27:04;;;;;;;12.02;2.92;;;10.80;99.90;;;;;;5454020;26;20082;-80
2024/04/19 12:29:30;;;;;;;11.38;3.20;;;11.00;99.90;;;;;;5450656;26;20007;-80
2024/04/19 12:31:56;;;;;;;15.18;3.22;;;11.20;99.90;;;;;;5463778;26;20014;-80
2024/04/19 12:34:22;;;;;;;15.00;3.28;;;11.30;99.90;;;;;;5475346;26;20007;-79
2024/04/19 12:36:48;;;;;;;13.48;3.03;;;11.40;99.90;;;;;;5465264;26;20022;-79
2024/04/19 12:39:14;;;;;;;13.80;3.58;;;11.50;99.90;;;;;;5449753;26;20472;-79
2024/04/19 12:41:40;;;;;;;9.27;2.97;;;11.70;99.90;;;;;;5460098;26;20366;-79
2024/04/19 12:44:06;;;;;;;16.55;3.53;;;11.70;99.90;;;;;;5464928;26;20006;-79
2024/04/19 12:46:34;;;;;;;13.40;3.60;;;11.70;99.90;;;;;;5465069;26;20013;-78
2024/04/19 12:49:12;;;;;;;12.25;2.72;;;11.90;99.90;;;;;;5463278;26;20347;-79
2024/04/19 12:51:38;;;;;;;11.80;2.50;;;11.50;99.90;;;;;;5485975;26;20006;-80
2024/04/19 12:54:04;;;;;;;9.02;2.25;;;11.30;99.90;;;;;;5471348;26;20018;-79